Latest Coastal Weather Observations for Double Island Point

IDQ60701

Issued at 5:12 am EST Friday 12 February 2016 (issued every 10 minutes, with the page automatically refreshed every 10 minutes)

About coastal observations | Map of coastal stations | Coastal observations for QLD | Marine services | Other Formats
Station Details ID: 040068 Name: DOUBLE ISLAND POINT LIGHTHOUSE Lat: -25.93 Lon: 153.19 Height: 95.64 m
Data from the previous 72 hours. | See also: Recent months at Double Island Point
Date/Time
EST
Temp

°C
Wind Pressure Rain
since 9am
mm
Weather Cloud Vis
km
Sea
Height
m
Swell
Dir
 
Speed
knots
Gust
knots
hPa Trend Height
m
Period
s
Dir
12/05:00am 23.9 SE 26 29 1010.0 - 0.2 - - - - - - -
12/04:30am 23.9 SE 25 29 1009.9 - 0.2 - - - - - - -
12/04:00am 23.9 SE 25 30 1009.8 - 0.2 - - - - - - -
12/03:30am 24.0 SE 26 28 1009.9 - 0.2 - - - - - - -
12/03:00am 24.0 SE 25 28 1009.9 - 0.2 - - - - - - -
12/02:30am 24.0 SE 25 29 1010.1 - 0.2 - - - - - - -
12/02:00am 24.0 SE 27 30 1010.1 - 0.2 - - - - - - -
12/01:30am 24.1 SE 27 30 1010.1 - 0.2 - - - - - - -
12/01:00am 24.1 SE 25 30 1010.5 - 0.2 - - - - - - -
12/12:30am 24.1 SE 24 30 1010.6 - 0.2 - - - - - - -
12/12:00am 24.1 SE 26 29 1010.6 - 0.2 - - - - - - -
 
Date/Time
EST
Temp

°C
Wind Pressure Rain
since 9am
mm
Weather Cloud Vis
km
Sea
Height
m
Swell
Dir
 
Speed
knots
Gust
knots
hPa Trend Height
m
Period
s
Dir
11/11:30pm 24.2 SE 27 31 1010.9 - 0.2 - - - - - - -
11/11:00pm 24.3 SE 26 31 1011.0 - 0.2 - - - - - - -
11/10:30pm 24.4 SE 27 31 1011.0 - 0.2 - - - - - - -
11/10:00pm 24.3 SE 27 31 1011.2 - 0.2 - - - - - - -
11/09:30pm 24.3 SE 26 31 1011.4 - 0.2 - - - - - - -
11/09:00pm 24.4 SE 27 31 1011.5 - 0.2 - - - - - - -
11/08:30pm 24.5 SE 28 31 1011.3 - 0.2 - - - - - - -
11/08:00pm 24.5 ESE 26 32 1011.2 - 0.2 - - - - - - -
11/07:30pm 24.5 SE 26 31 1011.2 - 0.2 - - - - - - -
11/07:00pm 24.5 SE 26 32 1010.8 - 0.2 - - - - - - -
11/06:30pm 24.5 SE 26 30 1010.5 - 0.2 - - - - - - -
11/06:00pm 24.5 SE 26 31 1010.3 - 0.2 - - - - - - -
11/05:30pm 24.6 SE 27 30 1010.1 - 0.2 - - - - - - -
11/05:00pm 25.0 SE 26 29 1010.0 - 0.2 - - - - - - -
11/04:30pm 24.6 SSE 23 29 1009.7 - 0.2 - - - - - - -
11/04:00pm 24.8 SSE 24 30 1009.6 - 0.2 - - - - - - -
11/03:30pm 24.5 SSE 25 33 1009.2 - 0.2 - - - - - - -
11/03:00pm 25.7 SSE 25 28 1009.5 - 0.2 - - - - - - -
11/02:30pm 26.1 SE 22 25 1009.9 - 0.2 - - - - - - -
11/02:00pm 25.4 SSE 22 26 1010.1 - 0.2 - - - - - - -
11/01:30pm 25.7 SSE 22 27 1010.1 - 0.2 - - - - - - -
11/01:00pm 24.4 SE 22 25 1010.6 - 0.2 - - - - - - -
11/12:30pm 25.7 SE 19 25 1010.9 - 0.2 - - - - - - -
11/12:00pm 25.4 SSE 20 24 1011.0 - 0.2 - - - - - - -
11/11:30am 25.7 SSE 21 25 1011.0 - 0.2 - - - - - - -
11/11:00am 25.0 SSE 23 26 1011.1 - 0.2 - - - - - - -
11/10:30am 24.1 SE 24 29 1011.2 - 0.2 - - - - - - -
11/10:09am 23.3 SE 14 25 1011.4 - 0.2 - - - - - - -
11/10:00am 23.0 SE 10 12 1011.7 - 0.2 - - - - - - -
11/09:30am 21.5 ESE 22 26 1011.6 - 0.2 - - - - - - -
11/09:20am 21.7 SSE 18 29 1011.6 - 0.0 - - - - - - -
11/09:19am 22.0 SSE 17 28 1011.7 - 0.0 - - - - - - -
11/09:00am 23.8 SSE 19 23 1011.2 - 0.8 - - - - - - -
11/08:30am 23.8 SSE 22 26 1011.0 - 0.8 - - - - - - -
11/08:00am 22.6 SE 29 34 1010.9 - 0.8 - - - - - - -
11/07:30am 22.1 SE 25 32 1011.0 - 0.8 - - - - - - -
11/07:00am 24.3 SE 26 29 1010.5 - 0.4 - - - - - - -
11/06:30am 24.1 SE 23 28 1010.4 - 0.4 - - - - - - -
11/06:00am 24.1 SE 25 28 1010.0 - 0.4 - - - - - - -
11/05:30am 23.7 SE 25 27 1009.8 - 0.4 - - - - - - -
11/05:00am 23.7 SE 25 29 1009.7 - 0.4 - - - - - - -
11/04:30am 23.7 SE 23 26 1009.7 - 0.4 - - - - - - -
11/04:00am 23.7 SE 23 27 1009.7 - 0.4 - - - - - - -
11/03:30am 23.8 SE 23 26 1009.5 - 0.4 - - - - - - -
11/03:00am 23.9 SE 23 25 1009.5 - 0.4 - - - - - - -
11/02:30am 23.8 SE 23 26 1009.6 - 0.4 - - - - - - -
11/02:00am 23.9 SE 24 27 1009.8 - 0.4 - - - - - - -
11/01:30am 23.9 SSE 20 24 1010.2 - 0.4 - - - - - - -
11/01:00am 23.7 SE 25 29 1010.3 - 0.4 - - - - - - -
11/12:30am 24.0 SE 25 29 1010.6 - 0.4 - - - - - - -
11/12:00am 23.9 SE 23 28 1010.9 - 0.4 - - - - - - -
 
Date/Time
EST
Temp

°C
Wind Pressure Rain
since 9am
mm
Weather Cloud Vis
km
Sea
Height
m
Swell
Dir
 
Speed
knots
Gust
knots
hPa Trend Height
m
Period
s
Dir
10/11:30pm 23.9 SE 23 27 1011.2 - 0.4 - - - - - - -
10/11:00pm 24.0 SE 23 26 1011.7 - 0.4 - - - - - - -
10/10:30pm 24.1 SE 24 27 1012.0 - 0.4 - - - - - - -
10/10:00pm 24.2 SE 23 27 1012.0 - 0.4 - - - - - - -
10/09:30pm 24.1 SE 24 27 1012.0 - 0.4 - - - - - - -
10/09:00pm 24.2 SE 25 29 1011.9 - 0.4 - - - - - - -
10/08:30pm 24.2 SE 27 30 1011.8 - 0.4 - - - - - - -
10/08:00pm 24.2 SE 25 29 1011.7 - 0.4 - - - - - - -
10/07:30pm 24.2 SE 25 28 1011.5 - 0.4 - - - - - - -
10/07:00pm 24.0 SE 26 30 1011.1 - 0.4 - - - - - - -
10/06:30pm 24.0 SE 24 28 1011.0 - 0.4 - - - - - - -
10/06:00pm 24.3 SE 26 28 1010.7 - 0.4 - - - - - - -
10/05:30pm 24.3 SE 25 28 1010.5 - 0.4 - - - - - - -
10/05:00pm 24.0 SSE 23 29 1010.3 - 0.4 - - - - - - -
10/04:30pm 23.4 SSE 23 26 1010.1 - 0.4 - - - - - - -
10/04:00pm 23.8 SE 21 24 1010.0 - 0.4 - - - - - - -
10/03:30pm 23.3 SE 23 25 1010.0 - 0.4 - - - - - - -
10/03:00pm 22.1 SE 27 33 1010.1 - 0.4 Recent precip. - - - - - -
10/02:30pm 22.4 SE 23 28 1010.3 - 0.4 - - - - - - -
10/02:00pm 23.8 SE 20 23 1010.7 - 0.0 - - - - - - -
10/01:42pm 22.2 SSE 20 27 1010.9 - 0.0 - - - - - - -
10/01:30pm 24.6 SSE 20 24 1010.8 - 0.0 - - - - - - -
10/01:21pm 24.3 SSE 22 27 1010.9 - 0.0 - - - - - - -
10/01:00pm 24.4 SSE 30 34 1010.7 - 0.0 - - - - - - -
10/12:30pm 24.7 SE 28 31 1011.0 - 0.0 - - - - - - -
10/12:00pm 25.9 SSE 28 33 1011.1 - 0.0 - - - - - - -
10/11:30am 25.9 SE 26 30 1011.4 - 0.0 - - - - - - -
10/11:00am 25.4 SE 26 30 1011.5 - 0.0 - - - - - - -
10/10:30am 23.2 SE 25 31 1011.5 - 0.0 - - - - - - -
10/10:13am 23.2 SE 28 35 1011.4 - 0.0 - - - - - - -
10/10:00am 25.4 SE 28 32 1011.5 - 0.0 - - - - - - -
10/09:30am 25.6 SE 26 31 1011.8 - 0.0 - - - - - - -
10/09:00am 24.9 SE 27 30 1011.6 - 0.0 - - - - - - -
10/08:30am 25.2 SSE 25 30 1011.6 - 0.0 - - - - - - -
10/08:00am 25.0 SE 26 30 1011.2 - 0.0 - - - - - - -
10/07:30am 24.4 SE 29 32 1011.1 - 0.0 - - - - - - -
10/07:00am 24.3 SE 29 33 1010.8 - 0.0 - - - - - - -
10/06:30am 24.2 SE 28 31 1010.6 - 0.0 - - - - - - -
10/06:00am 24.0 SE 26 29 1010.6 - 0.0 - - - - - - -
10/05:30am 23.5 SSE 24 29 1010.4 - 0.0 - - - - - - -
10/05:00am 23.7 SE 25 30 1010.1 - 0.0 - - - - - - -
10/04:30am 23.8 SE 29 33 1009.7 - 0.0 - - - - - - -
10/04:00am 24.0 SE 28 32 1009.7 - 0.0 - - - - - - -
10/03:30am 23.9 SE 27 30 1009.8 - 0.0 - - - - - - -
10/03:00am 24.0 SE 27 31 1009.9 - 0.0 - - - - - - -
10/02:30am 23.9 SE 27 30 1010.0 - 0.0 - - - - - - -
10/02:00am 23.9 SE 29 32 1010.2 - 0.0 - - - - - - -
10/01:30am 23.8 SE 28 32 1010.4 - 0.0 - - - - - - -
10/01:00am 23.8 SE 29 34 1010.9 - 0.0 - - - - - - -
10/12:30am 23.8 SE 26 31 1011.3 - 0.0 - - - - - - -
10/12:00am 23.9 SE 27 31 1011.8 - 0.0 - - - - - - -
 
Date/Time
EST
Temp

°C
Wind Pressure Rain
since 9am
mm
Weather Cloud Vis
km
Sea
Height
m
Swell
Dir
 
Speed
knots
Gust
knots
hPa Trend Height
m
Period
s
Dir
09/11:30pm 23.5 SE 33 38 1012.1 - 0.0 - - - - - - -
09/11:00pm 24.0 SE 30 34 1012.3 - 0.0 - - - - - - -
09/10:30pm 24.1 SE 30 33 1012.7 - 0.0 - - - - - - -
09/10:00pm 24.2 SE 33 37 1013.1 - 0.0 - - - - - - -
09/09:30pm 24.1 SE 31 36 1013.4 - 0.0 - - - - - - -
09/09:00pm 24.2 SE 33 37 1013.4 - 0.0 - - - - - - -
09/08:30pm 24.0 SE 33 38 1013.3 - 0.0 - - - - - - -
09/08:00pm 24.2 SE 32 37 1013.2 - 0.0 - - - - - - -
09/07:30pm 24.3 SE 33 38 1013.1 - 0.0 - - - - - - -
09/07:00pm 24.2 SE 32 37 1012.8 - 0.0 - - - - - - -
09/06:30pm 24.3 SSE 33 39 1012.7 - 0.0 - - - - - - -
09/06:00pm 24.5 SE 34 38 1012.3 - 0.0 - - - - - - -
09/05:30pm 24.7 SE 33 37 1012.0 - 0.0 - - - - - - -
09/05:00pm 24.9 SE 31 35 1012.1 - 0.0 - - - - - - -
09/04:30pm 24.9 SSE 32 36 1012.1 - 0.0 - - - - - - -
09/04:00pm 25.4 SE 30 34 1012.2 - 0.0 - - - - - - -
09/03:30pm 25.6 SSE 31 35 1012.2 - 0.0 - - - - - - -
09/03:00pm 25.8 SSE 30 34 1012.4 - 0.0 - - - - - - -
09/02:30pm 25.9 SSE 30 34 1012.4 - 0.0 - - - - - - -
09/02:00pm 26.3 SSE 29 33 1012.8 - 0.0 - - - - - - -
09/01:30pm 26.1 SE 29 33 1012.8 - 0.0 - - - - - - -
09/01:00pm 26.2 SE 30 35 1013.0 - 0.0 - - - - - - -
09/12:30pm 25.7 SSE 28 32 1013.3 - 0.0 - - - - - - -
09/12:00pm 26.6 SE 29 33 1013.3 - 0.0 - - - - - - -
09/11:30am 25.9 SE 28 33 1013.3 - 0.0 - - - - - - -
09/11:00am 26.6 SE 27 32 1013.4 - 0.0 - - - - - - -
09/10:30am 26.3 SSE 29 33 1013.3 - 0.0 - - - - - - -
09/10:00am 26.0 SE 30 34 1013.6 - 0.0 - - - - - - -
09/09:30am 26.2 SE 27 33 1013.7 - 0.0 - - - - - - -
09/09:00am 26.1 SE 26 29 1013.7 - 0.0 - - - - - - -
09/08:30am 25.9 SE 30 35 1013.4 - 0.0 - - - - - - -
09/08:00am 25.0 SE 29 34 1013.4 - 0.0 - - - - - - -
09/07:30am 25.2 SE 27 30 1013.3 - 0.0 - - - - - - -
09/07:00am 24.9 SE 29 32 1013.0 - 0.0 - - - - - - -
09/06:30am 24.6 SE 30 34 1012.7 - 0.0 - - - - - - -
09/06:00am 24.4 SE 29 34 1012.3 - 0.0 - - - - - - -
09/05:30am 24.0 SE 29 32 1012.1 - 0.0 - - - - - - -

Other Formats:

Comma delimited format used in spreadsheet applications
http://www.bom.gov.au/fwo/IDQ60701/IDQ60701.94584.axf

JavaScript Object Notation format (JSON) in row-major order
http://www.bom.gov.au/fwo/IDQ60701/IDQ60701.94584.json